»·PEaware :: CGBMO KPSC-KYKM

CGBMO :: KPSC-KYKM

FLIGHT INFORMATION

Flight Status: Arrived
Operator: Unknown
More flights by this operator :: More flights under this callsign
Pilot: Darcy E. (30361)
Aircraft: CESSNA 172 SKYHAWK
(C172)
More flights by this aircraft type
Origin: KPSC Tri-Cities
United States
Destination: KYKM Yakima Air Term/Mcallister
United States
More flights between these airports :: More routes between these airports
Route: PSC V204 YKM
File this flight plan on PilotEdge
Remarks:
Altitude:
(Current/Filed)
6,000ft
Speed:
(Current/Filed)
110kts
Departed: 04-Apr-21 07:41 PM
Arrived: 04-Apr-21 08:27 PM
Distance/Time
Traveled:
62nm/0:45
Distance/Time
To Go:
Arrived

Flight Plot

Page will automatically refresh every two minutes.

Flight plan parsing failed; only flown route is shown


Map Options




Map Legend


Flown Route
Filed Route
Departure Airport
Arrival Airport
Navaid (VOR, NDB)
Fix

Horizontal Profiles

Position Reports

Time Latitude Longitude Heading Altitude Ground
Speed
04-Apr-21 19:08 46.264621 -119.106192 250 411ft 0kts
04-Apr-21 19:09 46.264621 -119.106192 250 411ft 0kts
04-Apr-21 19:10 46.264621 -119.106192 250 411ft 0kts
04-Apr-21 19:11 46.264621 -119.106192 250 411ft 0kts
04-Apr-21 19:12 46.264621 -119.106192 250 411ft 0kts
04-Apr-21 19:13 46.264621 -119.106192 250 411ft 0kts
04-Apr-21 19:14 46.264621 -119.106192 250 411ft 0kts
04-Apr-21 19:15 46.264621 -119.106192 250 411ft 0kts
04-Apr-21 19:16 46.264621 -119.106192 250 411ft 0kts
04-Apr-21 19:17 46.264621 -119.106192 250 411ft 0kts
04-Apr-21 19:18 46.264621 -119.106192 250 411ft 0kts
04-Apr-21 19:19 46.264621 -119.106192 250 411ft 0kts
04-Apr-21 19:20 46.264621 -119.106192 250 411ft 0kts
04-Apr-21 19:21 46.264621 -119.106192 250 411ft 0kts
04-Apr-21 19:22 46.264621 -119.106192 250 411ft 0kts
04-Apr-21 19:23 46.264621 -119.106192 250 411ft 0kts
04-Apr-21 19:24 46.264621 -119.106192 250 411ft 0kts
04-Apr-21 19:25 46.264621 -119.106192 250 411ft 0kts
04-Apr-21 19:26 46.264621 -119.106192 250 411ft 0kts
04-Apr-21 19:27 46.264621 -119.106192 250 411ft 0kts
04-Apr-21 19:28 46.264621 -119.106192 250 411ft 0kts
04-Apr-21 19:29 46.264606 -119.106250 250 411ft 0kts
04-Apr-21 19:30 46.262096 -119.106071 143 409ft 15kts
04-Apr-21 19:31 46.259531 -119.105023 317 407ft 0kts
04-Apr-21 19:32 46.259531 -119.105023 317 407ft 0kts
04-Apr-21 19:33 46.259531 -119.105023 317 407ft 0kts
04-Apr-21 19:34 46.259531 -119.105023 317 407ft 0kts
04-Apr-21 19:35 46.259531 -119.105023 317 407ft 0kts
04-Apr-21 19:36 46.259531 -119.105023 317 407ft 0kts
04-Apr-21 19:37 46.259076 -119.105917 223 407ft 7kts
04-Apr-21 19:38 46.259025 -119.105988 225 407ft 0kts
04-Apr-21 19:39 46.258695 -119.107072 302 407ft 16kts
04-Apr-21 19:40 46.270407 -119.122704 319 1178ft 65kts
04-Apr-21 19:41 46.282629 -119.139847 308 2108ft 60kts
04-Apr-21 19:42 46.293197 -119.159079 302 2911ft 63kts
04-Apr-21 19:43 46.302838 -119.179158 289 3675ft 62kts
04-Apr-21 19:44 46.306168 -119.203613 279 4372ft 63kts
04-Apr-21 19:45 46.309707 -119.227674 290 5023ft 62kts
04-Apr-21 19:46 46.314240 -119.251151 287 5646ft 60kts
04-Apr-21 19:47 46.319564 -119.276999 292 5976ft 84kts
04-Apr-21 19:48 46.328089 -119.311965 291 5984ft 93kts
04-Apr-21 19:49 46.336315 -119.341855 297 6016ft 92kts
04-Apr-21 19:50 46.345496 -119.376548 291 5946ft 93kts
04-Apr-21 19:51 46.350702 -119.412966 287 5969ft 92kts
04-Apr-21 19:52 46.358109 -119.448583 281 5978ft 92kts
04-Apr-21 19:53 46.362709 -119.485153 287 5967ft 93kts
04-Apr-21 19:54 46.370491 -119.520414 286 6000ft 91kts
04-Apr-21 19:55 46.378850 -119.555253 293 6011ft 91kts
04-Apr-21 19:56 46.384548 -119.591492 284 6007ft 92kts
04-Apr-21 19:57 46.388650 -119.628319 277 6010ft 93kts
04-Apr-21 19:58 46.392307 -119.665273 283 6035ft 91kts
04-Apr-21 19:59 46.400306 -119.700451 290 6062ft 92kts
04-Apr-21 20:00 46.410931 -119.734434 292 6085ft 92kts
04-Apr-21 20:01 46.419979 -119.769119 285 6090ft 93kts
04-Apr-21 20:02 46.426296 -119.806146 291 6039ft 91kts
04-Apr-21 20:03 46.435567 -119.840629 287 6054ft 92kts
04-Apr-21 20:04 46.441891 -119.876742 291 6080ft 91kts
04-Apr-21 20:05 46.450381 -119.911862 287 6076ft 92kts
04-Apr-21 20:06 46.457690 -119.948402 288 6032ft 88kts
04-Apr-21 20:07 46.466346 -119.982428 288 6062ft 91kts
04-Apr-21 20:08 46.469541 -120.019308 278 6076ft 92kts
04-Apr-21 20:10 46.470072 -120.056953 277 6012ft 94kts
04-Apr-21 20:11 46.470770 -120.093977 276 5489ft 96kts
04-Apr-21 20:12 46.469829 -120.129360 276 5075ft 90kts
04-Apr-21 20:13 46.473187 -120.161234 291 5103ft 77kts
04-Apr-21 20:14 46.478275 -120.192596 298 4965ft 80kts
04-Apr-21 20:15 46.485735 -120.221620 293 4900ft 76kts
04-Apr-21 20:16 46.493453 -120.249699 296 4857ft 74kts
04-Apr-21 20:17 46.500121 -120.278277 293 4802ft 74kts
04-Apr-21 20:18 46.507718 -120.306171 298 4360ft 74kts
04-Apr-21 20:19 46.515438 -120.334411 293 3882ft 75kts
04-Apr-21 20:20 46.522697 -120.362940 294 3431ft 75kts
04-Apr-21 20:21 46.529618 -120.391603 295 3065ft 75kts
04-Apr-21 20:22 46.536992 -120.419997 293 2780ft 76kts
04-Apr-21 20:23 46.544199 -120.449852 296 2244ft 79kts
04-Apr-21 20:24 46.551939 -120.478611 297 1813ft 75kts
04-Apr-21 20:25 46.559132 -120.506756 298 1455ft 73kts
04-Apr-21 20:26 46.565881 -120.533376 295 1061ft 60kts
04-Apr-21 20:27 46.568384 -120.539621 52 1063ft 0kts
04-Apr-21 20:28 46.569648 -120.539276 68 1062ft 0kts
04-Apr-21 20:29 46.569599 -120.539204 235 1062ft 0kts
04-Apr-21 20:30 46.569600 -120.539205 230 1062ft 0kts

Navigation Log

Ident Type
Flight plan parsing failed, navigation log unavailable